Willamar, Texas
Current Conditions -  °F | °C
As of 6:35 AM on Thursday 23 Oct 2014 (Local Time) from KEBG Reporting Station
Clear Clear  
Wind Chill: 68°   Ceiling: Unl
Heat Index: 68°   Visibility: 7mi
Dew Point: 65°   Wind: 5mph
Humidity: 90%   Direction: 330°NNW
Pressure: 30.04"   Gusts: NA
Location:  26.5112°N, 97.8502°W
Report Text: KEBG 231135Z AUTO 33004KT 7SM CLR 20/18 A3004 RMK AO2 T01980182
Loading
Personal Weather Stations






























Interactive Weather Map
Tropical Storm Tracking
New forecast layout! Learn more

10-Day Weather Forecast

Advertisements
Track Severe Weather on mobile